Time;durP1;ratioP1;P1;durP2;ratioP2;P2;SDS_P1;SDS_P2;PMS_P1;PMS_P2;Temp;Humidity;BMP_temperature;BMP_pressure;BME280_temperature;BME280_humidity;BME280_pressure;Samples;Min_cycle;Max_cycle;Signal;HPM_P1;HPM_P2
2021/12/05 00:20:38;;;;;;;75.07;27.42;;;;;;;3.74;100.00;99585.56;4820045;28;20038;-73
2021/12/05 00:23:10;;;;;;;84.18;32.13;;;;;;;3.70;100.00;99585.13;4825928;29;20058;-73
2021/12/05 00:25:37;;;;;;;77.05;30.30;;;;;;;3.75;100.00;99587.19;4834987;28;20043;-73
2021/12/05 00:47:07;;;;;;;57.22;24.00;;;;;;;3.65;100.00;99600.91;4833749;29;20086;-74
2021/12/05 01:02:48;;;;;;;53.03;20.30;;;;;;;3.50;100.00;99603.69;4828601;28;20170;-73
2021/12/05 01:15:53;;;;;;;46.63;19.10;;;;;;;3.36;100.00;99604.63;4836917;29;20042;-72
2021/12/05 01:18:20;;;;;;;42.90;18.75;;;;;;;3.41;100.00;99602.22;4835962;29;20035;-73
2021/12/05 01:20:52;;;;;;;41.53;17.98;;;;;;;3.44;100.00;99607.16;4821588;28;20606;-72
2021/12/05 01:28:24;;;;;;;40.38;17.77;;;;;;;3.35;100.00;99619.78;4828502;29;20070;-72
2021/12/05 01:44:17;;;;;;;41.45;16.30;;;;;;;3.09;100.00;99620.44;4836832;29;20046;-71
2021/12/05 01:49:23;;;;;;;35.20;16.00;;;;;;;3.10;100.00;99632.72;4801530;29;20058;-72
2021/12/05 01:55:03;;;;;;;32.42;16.23;;;;;;;3.03;100.00;99634.50;4821130;29;20975;-74
2021/12/05 02:00:26;;;;;;;41.03;17.55;;;;;;;3.08;100.00;99639.25;4805860;28;20057;-75
2021/12/05 02:08:45;;;;;;;37.67;15.98;;;;;;;3.17;100.00;99637.28;4838903;29;24505;-72
2021/12/05 02:11:53;;;;;;;31.08;16.20;;;;;;;3.20;100.00;99644.88;4822182;29;20051;-72
2021/12/05 02:33:10;;;;;;;40.50;16.85;;;;;;;3.27;100.00;99648.41;4811965;29;20178;-73
2021/12/05 02:35:56;;;;;;;37.83;15.70;;;;;;;3.32;100.00;99646.78;4814870;29;20043;-73
2021/12/05 02:43:39;;;;;;;32.65;14.68;;;;;;;3.42;100.00;99641.13;4811225;29;20117;-74
2021/12/05 02:46:06;;;;;;;20.60;12.02;;;;;;;3.39;100.00;99646.84;4809507;29;20348;-73
2021/12/05 02:48:35;;;;;;;25.83;15.50;;;;;;;3.38;100.00;99644.38;4815637;29;20114;-74
2021/12/05 02:51:05;;;;;;;34.30;15.02;;;;;;;3.44;100.00;99641.75;4784142;29;20182;-73
2021/12/05 02:53:39;;;;;;;34.22;14.90;;;;;;;3.43;100.00;99640.09;4798364;29;20028;-73
2021/12/05 02:56:06;;;;;;;33.65;15.23;;;;;;;3.46;100.00;99646.88;4809819;29;20838;-74
2021/12/05 02:58:41;;;;;;;26.25;14.95;;;;;;;3.42;100.00;99646.44;4804612;29;22331;-72
2021/12/05 03:01:17;;;;;;;28.70;14.35;;;;;;;3.44;100.00;99647.09;4816049;29;20117;-71
2021/12/05 03:03:43;;;;;;;29.05;14.50;;;;;;;3.44;100.00;99641.75;4800672;28;20051;-72
2021/12/05 03:06:18;;;;;;;27.35;15.13;;;;;;;3.44;100.00;99649.75;4817098;29;20036;-72
2021/12/05 03:08:46;;;;;;;33.38;15.75;;;;;;;3.44;100.00;99655.06;4796541;29;23943;-72
2021/12/05 03:11:12;;;;;;;35.42;15.75;;;;;;;3.43;100.00;99648.09;4805431;29;20067;-71
2021/12/05 03:13:40;;;;;;;25.00;13.75;;;;;;;3.50;100.00;99645.47;4812678;29;20050;-71
2021/12/05 03:16:06;;;;;;;32.47;15.20;;;;;;;3.44;100.00;99647.09;4797762;29;20455;-71
2021/12/05 03:18:32;;;;;;;29.35;14.88;;;;;;;3.48;100.00;99653.66;4785757;29;21622;-73
2021/12/05 03:20:58;;;;;;;30.50;16.38;;;;;;;3.50;100.00;99653.44;4817784;29;20036;-73
2021/12/05 03:23:25;;;;;;;24.70;14.57;;;;;;;3.42;100.00;99648.28;4803341;29;20082;-73
2021/12/05 03:25:51;;;;;;;26.17;15.70;;;;;;;3.35;100.00;99650.91;4796237;29;20167;-73
2021/12/05 03:28:17;;;;;;;34.28;15.45;;;;;;;3.44;100.00;99654.22;4810346;29;20035;-73
2021/12/05 03:30:43;;;;;;;32.75;15.18;;;;;;;3.40;100.00;99648.47;4814824;29;21007;-73
2021/12/05 03:33:09;;;;;;;32.00;15.48;;;;;;;3.36;100.00;99652.53;4834390;29;21085;-73
2021/12/05 03:35:35;;;;;;;31.42;16.83;;;;;;;3.38;100.00;99653.19;4829779;28;20067;-73
2021/12/05 03:38:00;;;;;;;34.53;17.40;;;;;;;3.36;100.00;99657.88;4810039;29;20073;-73
2021/12/05 03:40:27;;;;;;;36.80;17.25;;;;;;;3.36;100.00;99657.88;4837426;29;20043;-73
2021/12/05 03:42:55;;;;;;;28.20;15.85;;;;;;;3.36;100.00;99657.88;4804767;29;20072;-73
2021/12/05 03:45:25;;;;;;;38.50;18.15;;;;;;;3.43;100.00;99648.09;4834779;29;20027;-73
2021/12/05 03:47:51;;;;;;;38.78;17.63;;;;;;;3.39;100.00;99657.47;4812003;28;20122;-73
2021/12/05 03:50:17;;;;;;;32.75;18.35;;;;;;;3.38;100.00;99660.34;4808150;29;20189;-73
2021/12/05 03:52:42;;;;;;;45.58;19.65;;;;;;;3.39;100.00;99657.47;4836893;29;22458;-73
2021/12/05 03:55:11;;;;;;;42.00;18.73;;;;;;;3.32;100.00;99661.94;4807103;29;20047;-74
2021/12/05 03:57:37;;;;;;;36.97;19.25;;;;;;;3.42;100.00;99657.09;4819195;29;20042;-74
2021/12/05 04:00:25;;;;;;;38.50;20.92;;;;;;;3.41;100.00;99655.47;4836430;29;25241;-73
2021/12/05 04:02:52;;;;;;;46.58;20.85;;;;;;;3.41;100.00;99659.97;4826863;29;20055;-73
2021/12/05 04:05:18;;;;;;;45.72;21.35;;;;;;;3.33;100.00;99664.41;4819719;29;20121;-73
2021/12/05 04:07:43;;;;;;;43.13;20.88;;;;;;;3.23;100.00;99652.44;4817359;29;20063;-73
2021/12/05 04:10:10;;;;;;;39.58;20.48;;;;;;;3.26;100.00;99673.34;4810923;29;20087;-72
2021/12/05 04:12:36;;;;;;;43.50;23.70;;;;;;;3.21;100.00;99665.13;4819843;29;21261;-72
2021/12/05 04:15:03;;;;;;;40.45;23.33;;;;;;;3.24;100.00;99678.06;4773323;29;20059;-72
2021/12/05 04:17:29;;;;;;;55.42;24.52;;;;;;;3.20;100.00;99679.47;4837950;29;20028;-72
2021/12/05 04:19:54;;;;;;;54.15;25.33;;;;;;;3.22;100.00;99680.91;4815785;29;20062;-72
2021/12/05 04:22:20;;;;;;;50.33;25.92;;;;;;;3.16;100.00;99672.88;4825594;29;20044;-74
2021/12/05 04:24:46;;;;;;;59.70;26.77;;;;;;;3.17;100.00;99674.53;4817154;29;20564;-74
2021/12/05 04:27:12;;;;;;;61.78;27.55;;;;;;;3.25;100.00;99682.34;4812985;29;20623;-74
2021/12/05 04:29:37;;;;;;;60.25;28.60;;;;;;;3.28;100.00;99661.50;4809567;29;20142;-73
2021/12/05 04:32:04;;;;;;;51.80;28.15;;;;;;;3.27;100.00;99664.38;4821521;29;23847;-74
2021/12/05 04:34:30;;;;;;;47.58;26.70;;;;;;;3.20;100.00;99661.66;4804295;29;20051;-73
2021/12/05 04:36:56;;;;;;;51.08;27.35;;;;;;;3.21;100.00;99670.47;4838438;29;20093;-73
2021/12/05 04:39:26;;;;;;;51.85;27.80;;;;;;;3.22;100.00;99674.75;4817103;28;20041;-74
2021/12/05 04:41:52;;;;;;;60.28;28.38;;;;;;;3.15;100.00;99671.22;4829161;29;20063;-74
2021/12/05 04:44:19;;;;;;;55.95;28.77;;;;;;;3.13;100.00;99678.59;4807307;29;20035;-74
2021/12/05 04:46:45;;;;;;;52.63;26.27;;;;;;;3.10;100.00;99669.97;4792279;29;20051;-74
2021/12/05 04:49:10;;;;;;;51.60;28.75;;;;;;;3.04;100.00;99673.41;4838590;29;20347;-74
2021/12/05 04:51:39;;;;;;;61.83;28.70;;;;;;;3.04;100.00;99692.03;4839303;29;20065;-73
2021/12/05 04:54:08;;;;;;;60.28;28.50;;;;;;;3.02;100.00;99696.72;4808566;29;20052;-74
2021/12/05 04:56:34;;;;;;;57.25;27.65;;;;;;;3.08;100.00;99698.59;4839909;29;22032;-72
2021/12/05 04:59:00;;;;;;;52.72;27.17;;;;;;;3.16;100.00;99699.47;4816731;29;21038;-72
2021/12/05 05:01:26;;;;;;;61.50;27.00;;;;;;;3.14;100.00;99704.19;4811841;29;20052;-72
2021/12/05 05:03:52;;;;;;;50.28;26.15;;;;;;;3.13;100.00;99707.88;4838130;29;20678;-72
2021/12/05 05:06:19;;;;;;;46.20;26.30;;;;;;;3.16;100.00;99710.97;4828469;28;24014;-73
2021/12/05 05:08:48;;;;;;;55.05;26.15;;;;;;;3.19;100.00;99709.75;4809561;29;20045;-72
2021/12/05 05:11:17;;;;;;;50.80;25.33;;;;;;;3.17;100.00;99707.28;4833719;29;20030;-72
2021/12/05 05:13:43;;;;;;;43.25;24.65;;;;;;;3.14;100.00;99717.50;4804229;28;20055;-72
2021/12/05 05:16:11;;;;;;;59.90;24.38;;;;;;;3.15;100.00;99713.81;4818110;28;20038;-72
2021/12/05 05:18:43;;;;;;;54.92;23.67;;;;;;;3.11;100.00;99714.19;4815824;28;20074;-72
2021/12/05 05:49:59;;;;;;;41.72;18.38;;;;;;;3.11;100.00;99761.25;4837512;29;20031;-72
2021/12/05 05:52:26;;;;;;;42.78;17.85;;;;;;;3.09;100.00;99758.81;4805655;29;20043;-72
2021/12/05 05:54:54;;;;;;;40.83;18.08;;;;;;;3.01;100.00;99761.56;4839187;29;20039;-72
2021/12/05 06:05:15;;;;;;;45.90;15.85;;;;;;;3.01;100.00;99790.03;4795239;29;20051;-72
2021/12/05 06:07:43;;;;;;;43.33;15.43;;;;;;;3.03;100.00;99791.50;4819981;29;21130;-72
2021/12/05 06:10:11;;;;;;;39.22;15.25;;;;;;;3.05;100.00;99797.44;4814771;29;20043;-74
2021/12/05 06:12:38;;;;;;;39.28;15.50;;;;;;;2.99;100.00;99805.38;4825531;29;20051;-74
2021/12/05 06:15:05;;;;;;;39.00;16.13;;;;;;;2.92;100.00;99799.97;4835597;28;20070;-73
2021/12/05 06:17:30;;;;;;;38.08;15.45;;;;;;;2.93;100.00;99806.94;4820889;29;20182;-73
2021/12/05 06:19:56;;;;;;;37.28;14.52;;;;;;;2.97;100.00;99810.03;4804369;29;20019;-74
2021/12/05 06:22:22;;;;;;;25.60;12.95;;;;;;;3.01;100.00;99809.47;4836642;29;20031;-72
2021/12/05 06:24:48;;;;;;;36.80;14.77;;;;;;;3.01;100.00;99812.13;4819415;29;20059;-73
2021/12/05 06:27:13;;;;;;;42.03;14.40;;;;;;;3.00;100.00;99812.31;4834756;28;20035;-73
2021/12/05 06:29:46;;;;;;;29.92;13.95;;;;;;;3.01;100.00;99820.09;4813023;29;20047;-73
2021/12/05 06:32:36;;;;;;;32.30;14.13;;;;;;;3.00;100.00;99818.47;4809483;29;20051;-73
2021/12/05 06:37:48;;;;;;;35.55;13.73;;;;;;;2.94;100.00;99823.72;4823268;28;20066;-73
2021/12/05 06:43:06;;;;;;;31.70;13.45;;;;;;;3.00;100.00;99829.09;4824147;29;20070;-73
2021/12/05 06:48:16;;;;;;;25.20;12.90;;;;;;;2.95;100.00;99839.50;4817306;29;20070;-73
2021/12/05 06:50:41;;;;;;;31.35;13.35;;;;;;;2.93;100.00;99838.84;4785576;29;23748;-74
2021/12/05 06:53:07;;;;;;;42.08;14.82;;;;;;;2.93;100.00;99844.16;4818409;29;20173;-73
2021/12/05 06:55:34;;;;;;;39.55;13.30;;;;;;;2.88;100.00;99846.59;4829087;28;20055;-72
2021/12/05 06:57:59;;;;;;;38.40;12.68;;;;;;;2.82;100.00;99849.97;4787768;29;20059;-72
2021/12/05 07:00:27;;;;;;;52.50;14.77;;;;;;;2.83;100.00;99848.97;4817517;29;20039;-72
2021/12/05 07:02:53;;;;;;;39.28;13.80;;;;;;;2.83;100.00;99856.94;4800350;28;20103;-72
2021/12/05 07:07:53;;;;;;;32.35;11.65;;;;;;;2.76;100.00;99870.16;4829763;28;20031;-72
2021/12/05 07:10:20;;;;;;;42.00;12.63;;;;;;;2.77;100.00;99869.16;4827039;29;21296;-72
2021/12/05 07:15:30;;;;;;;31.92;13.77;;;;;;;2.84;100.00;99882.53;4826631;29;20577;-73
2021/12/05 07:26:44;;;;;;;;;;;;;;;2.89;100.00;99904.09;4829867;28;20571;-74
2021/12/05 07:42:39;;;;;;;34.97;12.98;;;;;;;2.85;100.00;99924.09;4804910;29;20067;-73
2021/12/05 07:45:06;;;;;;;32.83;14.55;;;;;;;2.85;100.00;99930.22;4828592;29;20035;-74
2021/12/05 07:47:33;;;;;;;32.60;13.80;;;;;;;2.86;100.00;99931.06;4819959;29;20059;-72
2021/12/05 07:50:06;;;;;;;34.72;14.75;;;;;;;2.83;100.00;99931.41;4825658;28;20031;-71
2021/12/05 07:52:33;;;;;;;34.72;15.27;;;;;;;2.87;100.00;99938.00;4796572;29;20054;-72
2021/12/05 07:55:16;;;;;;;38.78;15.55;;;;;;;2.86;100.00;99945.16;4814578;28;21504;-71
2021/12/05 08:16:31;;;;;;;;;;;;;;;2.93;100.00;99982.50;4820946;28;20050;-72
2021/12/05 08:18:57;;;;;;;43.85;17.23;;;;;;;2.93;100.00;99979.03;4831490;28;21068;-72
2021/12/05 08:21:23;;;;;;;37.65;15.57;;;;;;;2.99;100.00;99984.44;4805770;29;20055;-73
2021/12/05 08:23:49;;;;;;;38.75;17.15;;;;;;;2.99;100.00;99971.13;4814364;29;20042;-73
2021/12/05 08:26:22;;;;;;;32.63;16.25;;;;;;;3.10;100.00;99983.97;4834721;28;24360;-72
2021/12/05 08:39:35;;;;;;;45.05;18.08;;;;;;;3.15;100.00;99995.88;4810205;29;20576;-75
2021/12/05 09:20:11;;;;;;;;;;;;;;;3.37;100.00;100044.69;4818052;29;20154;-72
2021/12/05 09:28:53;;;;;;;42.78;19.73;;;;;;;3.31;100.00;100086.19;4808982;29;20044;-74
2021/12/05 10:09:18;;;;;;;44.92;20.20;;;;;;;3.86;100.00;100158.59;4814261;29;20388;-71
2021/12/05 10:20:16;;;;;;;37.55;19.48;;;;;;;3.94;100.00;100172.66;4814931;29;20178;-71
2021/12/05 10:26:25;;;;;;;35.88;18.35;;;;;;;3.97;100.00;100179.47;4831469;28;20571;-71
2021/12/05 10:34:44;;;;;;;22.50;14.88;;;;;;;4.00;100.00;100192.38;4816861;29;20534;-71
2021/12/05 10:37:21;;;;;;;31.58;15.88;;;;;;;4.02;100.00;100199.19;4805428;29;21822;-72
2021/12/05 10:39:47;;;;;;;29.13;15.43;;;;;;;4.01;100.00;100205.53;4817744;29;25567;-71
2021/12/05 10:42:37;;;;;;;33.97;17.33;;;;;;;4.01;100.00;100205.53;4804155;29;20044;-72
2021/12/05 10:45:08;;;;;;;35.83;17.75;;;;;;;4.03;100.00;100208.81;4832152;29;20078;-71
2021/12/05 10:47:45;;;;;;;31.90;16.30;;;;;;;4.02;100.00;100215.19;4812747;29;20039;-72
2021/12/05 10:50:31;;;;;;;34.30;16.15;;;;;;;4.04;100.00;100221.16;4822263;28;20051;-74
2021/12/05 10:53:17;;;;;;;34.28;17.45;;;;;;;4.01;100.00;100224.19;4817910;29;20035;-74
2021/12/05 10:55:42;;;;;;;35.10;17.58;;;;;;;4.00;100.00;100227.88;4806860;28;20138;-73
2021/12/05 10:58:07;;;;;;;34.35;18.30;;;;;;;4.03;100.00;100230.16;4821216;29;20118;-74
2021/12/05 11:00:33;;;;;;;42.97;19.60;;;;;;;4.05;100.00;100228.13;4813561;28;21037;-73
2021/12/05 11:03:17;;;;;;;37.90;18.15;;;;;;;4.11;100.00;100231.06;4813341;29;20052;-73
2021/12/05 11:05:44;;;;;;;29.95;17.63;;;;;;;4.13;100.00;100239.72;4785702;29;20046;-73
2021/12/05 11:08:36;;;;;;;33.63;17.15;;;;;;;4.20;100.00;100246.78;4817477;28;20176;-70
2021/12/05 11:11:09;;;;;;;32.95;17.85;;;;;;;4.21;100.00;100244.94;4830878;29;20027;-70
2021/12/05 11:13:37;;;;;;;36.22;18.33;;;;;;;4.25;100.00;100248.91;4810687;29;20571;-70
2021/12/05 11:16:26;;;;;;;28.52;18.45;;;;;;;4.34;100.00;100253.09;4820856;28;20062;-70
2021/12/05 11:18:52;;;;;;;38.03;19.17;;;;;;;4.40;100.00;100257.69;4821842;29;20202;-73
2021/12/05 11:21:33;;;;;;;36.58;17.98;;;;;;;4.51;100.00;100270.53;4821592;29;22706;-74
2021/12/05 11:24:07;;;;;;;38.88;18.83;;;;;;;4.58;100.00;100259.13;4808850;29;20043;-73
2021/12/05 11:26:34;;;;;;;37.00;19.45;;;;;;;4.62;100.00;100265.72;4826662;28;20055;-71
2021/12/05 11:29:00;;;;;;;34.10;19.05;;;;;;;4.71;100.00;100269.97;4804312;29;20126;-70
2021/12/05 11:31:28;;;;;;;35.25;18.13;;;;;;;4.70;100.00;100269.13;4823526;29;21059;-70
2021/12/05 11:33:55;;;;;;;34.67;18.52;;;;;;;4.73;100.00;100276.72;4794575;28;20055;-70
2021/12/05 11:36:26;;;;;;;35.97;17.77;;;;;;;4.77;100.00;100263.84;4830131;29;20035;-69
2021/12/05 11:38:51;;;;;;;31.50;16.63;;;;;;;4.79;100.00;100275.16;4829820;29;20154;-70
2021/12/05 11:41:20;;;;;;;33.63;17.98;;;;;;;4.91;100.00;100281.63;4808667;28;21702;-73
2021/12/05 11:43:54;;;;;;;36.63;17.35;;;;;;;4.97;100.00;100280.88;4831922;29;20046;-73
2021/12/05 11:46:27;;;;;;;33.83;18.20;;;;;;;4.97;100.00;100283.56;4821819;29;20094;-74
2021/12/05 11:49:06;;;;;;;26.80;16.50;;;;;;;4.96;100.00;100286.44;4832013;28;20174;-73
2021/12/05 11:51:41;;;;;;;29.20;16.35;;;;;;;5.01;100.00;100297.34;4826026;29;20034;-74
2021/12/05 11:54:17;;;;;;;32.30;16.88;;;;;;;4.92;100.00;100294.00;4825097;28;20059;-74
2021/12/05 11:57:06;;;;;;;34.63;17.27;;;;;;;4.80;100.00;100298.16;4839907;28;20082;-74
2021/12/05 11:59:39;;;;;;;31.92;16.75;;;;;;;4.87;100.00;100299.06;4838554;28;20043;-73
2021/12/05 12:02:25;;;;;;;30.30;15.77;;;;;;;4.73;100.00;100299.91;4827565;29;20059;-72
2021/12/05 12:05:13;;;;;;;31.05;17.02;;;;;;;4.73;100.00;100299.91;4842171;29;20035;-71
2021/12/05 12:07:42;;;;;;;37.10;15.98;;;;;;;4.71;100.00;100302.78;4817961;29;20071;-71
2021/12/05 12:10:22;;;;;;;33.42;16.13;;;;;;;4.70;100.00;100300.28;4826289;29;20031;-71
2021/12/05 12:12:58;;;;;;;33.53;16.33;;;;;;;4.62;100.00;100298.56;4819366;28;20055;-72
2021/12/05 12:15:25;;;;;;;33.60;17.83;;;;;;;4.77;100.00;100306.53;4832257;28;24391;-71
2021/12/05 12:17:55;;;;;;;35.75;19.63;;;;;;;4.93;100.00;100317.00;4832200;29;21250;-71
2021/12/05 12:20:23;;;;;;;35.00;16.77;;;;;;;4.99;100.00;100316.25;4802776;29;20051;-71
2021/12/05 12:22:55;;;;;;;30.45;15.82;;;;;;;5.07;100.00;100320.63;4843607;29;20146;-72
2021/12/05 12:25:25;;;;;;;32.03;16.48;;;;;;;5.34;100.00;100324.41;4837431;28;20051;-72
2021/12/05 12:27:51;;;;;;;27.80;14.43;;;;;;;5.43;100.00;100333.91;4841749;29;20078;-74
2021/12/05 12:30:24;;;;;;;27.10;15.50;;;;;;;5.50;100.00;100333.97;4836628;29;20696;-72
2021/12/05 12:32:54;;;;;;;25.70;14.32;;;;;;;5.66;100.00;100340.91;4843300;28;21176;-74
2021/12/05 12:35:25;;;;;;;27.08;14.02;;;;;;;5.74;100.00;100346.09;4867524;28;20033;-73
2021/12/05 12:38:03;;;;;;;23.92;13.52;;;;;;;5.71;100.00;100341.13;4848947;28;21262;-73
2021/12/05 12:40:47;;;;;;;24.45;13.75;;;;;;;5.76;100.00;100341.41;4841482;28;20166;-73
2021/12/05 12:43:31;;;;;;;;;;;;;;;5.67;100.00;100345.22;4856515;28;20038;-73
2021/12/05 12:45:56;;;;;;;22.95;12.02;;;;;;;5.72;100.00;100340.09;4842216;29;19926;-73
2021/12/05 12:48:28;;;;;;;26.48;12.00;;;;;;;5.78;100.00;100346.53;4838649;29;20035;-72
2021/12/05 12:50:54;;;;;;;24.77;11.90;;;;;;;5.74;100.00;100351.44;4829919;29;20047;-73
2021/12/05 12:53:28;;;;;;;21.48;12.50;;;;;;;5.71;100.00;100349.97;4843013;28;20066;-73
2021/12/05 12:55:58;;;;;;;23.75;10.52;;;;;;;5.72;100.00;100361.50;4854878;28;22487;-73
2021/12/05 12:58:46;;;;;;;22.42;10.73;;;;;;;5.69;100.00;100359.22;4826497;28;21446;-73
2021/12/05 13:04:32;;;;;;;24.75;10.75;;;;;;;5.83;100.00;100360.16;4851133;28;20146;-73
2021/12/05 13:07:22;;;;;;;25.35;11.10;;;;;;;6.10;100.00;100359.34;4832725;29;20083;-72
2021/12/05 13:10:10;;;;;;;19.48;10.57;;;;;;;6.22;100.00;100367.69;4837746;28;20170;-72
2021/12/05 13:12:44;;;;;;;21.67;9.52;;;;;;;6.47;100.00;100368.03;4827719;29;20126;-72
2021/12/05 13:15:12;;;;;;;;;;;;;;;6.69;100.00;100374.91;4837380;28;20043;-72
2021/12/05 13:17:43;;;;;;;31.40;14.52;;;;;;;6.74;100.00;100371.66;4829280;28;19926;-73
2021/12/05 13:20:11;;;;;;;18.23;8.57;;;;;;;6.66;100.00;100371.81;4852844;29;20112;-73
2021/12/05 13:22:59;;;;;;;17.05;7.65;;;;;;;6.33;100.00;100369.78;4853792;28;20098;-73
2021/12/05 13:25:25;;;;;;;16.60;8.65;;;;;;;6.19;100.00;100376.09;4832701;28;20562;-73
2021/12/05 13:27:51;;;;;;;17.58;7.72;;;;;;;6.14;100.00;100381.19;4846485;29;20027;-73
2021/12/05 13:30:32;;;;;;;19.13;8.35;;;;;;;6.08;100.00;100384.66;4838677;29;20106;-73
2021/12/05 13:33:17;;;;;;;17.70;8.60;;;;;;;6.00;100.00;100390.13;4831133;29;20051;-71
2021/12/05 13:35:43;;;;;;;24.02;8.95;;;;;;;5.93;100.00;100398.94;4836880;29;20040;-73
2021/12/05 13:38:38;;;;;;;20.95;9.93;;;;;;;5.89;100.00;100407.50;4833404;28;20066;-73
2021/12/05 13:41:19;;;;;;;20.80;10.20;;;;;;;5.78;100.00;100400.81;4804128;29;22779;-73
2021/12/05 13:44:01;;;;;;;21.75;9.13;;;;;;;5.83;100.00;100408.28;4818557;28;21837;-73
2021/12/05 13:46:38;;;;;;;19.58;9.20;;;;;;;5.72;100.00;100418.47;4833123;29;20040;-73
2021/12/05 13:49:35;;;;;;;22.77;9.45;;;;;;;5.63;100.00;100424.13;4814587;29;20040;-73
2021/12/05 13:52:31;;;;;;;17.38;9.60;;;;;;;5.54;100.00;100425.25;4808599;29;20141;-73
2021/12/05 13:55:34;;;;;;;18.67;8.48;;;;;;;5.48;100.00;100427.69;4818214;29;24395;-75
2021/12/05 13:58:22;;;;;;;20.88;8.82;;;;;;;5.31;100.00;100428.94;4813243;29;20075;-72
2021/12/05 14:00:57;;;;;;;17.88;8.23;;;;;;;5.29;100.00;100444.31;4820341;29;20107;-72
2021/12/05 14:03:49;;;;;;;20.15;9.70;;;;;;;5.21;100.00;100455.94;4823942;28;24050;-71
2021/12/05 14:06:36;;;;;;;19.10;9.50;;;;;;;5.13;100.00;100460.56;4834716;29;20031;-73
2021/12/05 14:09:10;;;;;;;18.45;9.07;;;;;;;5.19;100.00;100470.47;4814202;28;20050;-70
2021/12/05 14:11:41;;;;;;;16.05;9.20;;;;;;;5.12;100.00;100474.91;4808521;29;20174;-70
2021/12/05 14:14:07;;;;;;;23.17;10.40;;;;;;;5.05;100.00;100484.66;4818347;29;20036;-70
2021/12/05 14:16:36;;;;;;;20.42;10.43;;;;;;;4.93;100.00;100482.47;4815912;28;20048;-71
2021/12/05 14:19:04;;;;;;;15.05;10.55;;;;;;;4.86;100.00;100486.91;4811488;29;20091;-71
2021/12/05 14:21:30;;;;;;;18.52;10.23;;;;;;;4.82;100.00;100495.47;4810983;29;20047;-71
2021/12/05 14:23:59;;;;;;;22.25;10.75;;;;;;;4.73;100.00;100502.72;4822497;29;20107;-73
2021/12/05 14:26:27;;;;;;;17.88;10.45;;;;;;;4.66;100.00;100507.13;4816531;29;20040;-74
2021/12/05 14:29:07;;;;;;;18.38;9.63;;;;;;;4.66;100.00;100507.13;4801717;29;20134;-74
2021/12/05 14:31:54;;;;;;;20.33;11.82;;;;;;;4.60;100.00;100502.50;4829206;28;20055;-74
2021/12/05 14:34:21;;;;;;;23.52;12.63;;;;;;;4.58;100.00;100518.72;4810948;28;20152;-74
2021/12/05 14:36:58;;;;;;;20.13;13.02;;;;;;;4.61;100.00;100533.53;4809401;29;20059;-74
2021/12/05 14:39:25;;;;;;;25.35;12.00;;;;;;;4.61;100.00;100534.34;4814745;29;23209;-74
2021/12/05 14:41:55;;;;;;;23.90;12.07;;;;;;;4.58;100.00;100547.22;4818171;29;20596;-74
2021/12/05 14:44:22;;;;;;;28.08;12.10;;;;;;;4.56;100.00;100544.72;4818307;29;20190;-74
2021/12/05 14:46:55;;;;;;;22.77;12.73;;;;;;;4.55;100.00;100553.75;4818238;29;21271;-74
2021/12/05 14:49:24;;;;;;;20.60;13.00;;;;;;;4.53;100.00;100556.59;4799415;29;20051;-75
2021/12/05 14:51:50;;;;;;;24.50;13.23;;;;;;;4.46;100.00;100555.66;4797784;29;20712;-74
2021/12/05 14:54:28;;;;;;;29.98;15.38;;;;;;;4.50;100.00;100562.28;4811348;29;21252;-74
2021/12/05 14:56:55;;;;;;;26.77;16.60;;;;;;;4.45;100.00;100570.00;4806956;29;20055;-74
2021/12/05 14:59:20;;;;;;;29.20;16.20;;;;;;;4.48;100.00;100574.97;4816722;29;20148;-73
2021/12/05 15:01:50;;;;;;;29.17;17.55;;;;;;;4.52;100.00;100586.94;4816621;28;20127;-73
2021/12/05 15:04:22;;;;;;;29.88;17.13;;;;;;;4.47;100.00;100594.66;4830779;28;20040;-73
2021/12/05 15:06:47;;;;;;;33.42;17.55;;;;;;;4.53;100.00;100603.78;4810525;29;20032;-73
2021/12/05 15:09:24;;;;;;;37.20;19.08;;;;;;;4.46;100.00;100598.34;4803795;29;20906;-71
2021/12/05 15:11:56;;;;;;;38.97;18.60;;;;;;;4.40;100.00;100607.06;4798884;29;22703;-73
2021/12/05 15:14:22;;;;;;;34.30;18.52;;;;;;;4.39;100.00;100600.06;4801060;29;20063;-73
2021/12/05 15:17:00;;;;;;;34.42;19.40;;;;;;;4.32;100.00;100601.78;4830405;28;20085;-73
2021/12/05 15:19:26;;;;;;;35.45;20.08;;;;;;;4.30;100.00;100614.47;4795098;29;21109;-72
2021/12/05 15:21:52;;;;;;;39.22;20.23;;;;;;;4.27;100.00;100614.81;4816387;29;20051;-72
2021/12/05 15:24:19;;;;;;;39.88;20.67;;;;;;;4.22;100.00;100623.34;4816124;29;24814;-72
2021/12/05 15:26:45;;;;;;;37.50;21.83;;;;;;;4.15;100.00;100626.91;4809258;29;20146;-72
2021/12/05 15:29:11;;;;;;;38.78;20.88;;;;;;;4.21;100.00;100628.84;4806107;29;20459;-72
2021/12/05 15:31:38;;;;;;;47.10;22.65;;;;;;;4.18;100.00;100626.56;4829950;29;20048;-72
2021/12/05 15:34:21;;;;;;;38.85;21.73;;;;;;;4.19;100.00;100638.88;4802040;28;20082;-73
2021/12/05 15:36:47;;;;;;;44.47;23.27;;;;;;;4.19;100.00;100649.53;4830443;29;20032;-73
2021/12/05 15:39:20;;;;;;;37.28;20.17;;;;;;;4.13;100.00;100639.56;4808689;28;20351;-73
2021/12/05 15:41:52;;;;;;;35.65;21.77;;;;;;;4.12;100.00;100644.06;4806671;29;20825;-72
2021/12/05 15:44:32;;;;;;;47.78;24.08;;;;;;;4.18;100.00;100647.88;4814681;29;20023;-72
2021/12/05 15:47:13;;;;;;;41.85;22.25;;;;;;;4.13;100.00;100647.56;4813476;28;20118;-73
2021/12/05 15:49:48;;;;;;;44.25;23.65;;;;;;;4.17;100.00;100651.53;4813781;29;20537;-73
2021/12/05 15:52:14;;;;;;;44.42;23.58;;;;;;;4.10;100.00;100661.22;4795098;28;20070;-73
2021/12/05 15:54:42;;;;;;;45.08;24.20;;;;;;;3.99;100.00;100655.28;4805763;29;20994;-72
2021/12/05 15:57:26;;;;;;;45.88;23.40;;;;;;;3.93;100.00;100668.47;4828802;29;20247;-73
2021/12/05 15:59:52;;;;;;;45.20;24.60;;;;;;;3.84;100.00;100678.34;4812429;28;20753;-73
2021/12/05 16:02:19;;;;;;;48.85;24.52;;;;;;;3.76;100.00;100676.56;4814326;29;20027;-73
2021/12/05 16:04:45;;;;;;;42.30;25.88;;;;;;;3.76;100.00;100689.06;4815619;29;20598;-72
2021/12/05 16:07:11;;;;;;;51.13;26.85;;;;;;;3.75;100.00;100698.03;4801758;29;20063;-74
2021/12/05 16:09:40;;;;;;;42.17;26.00;;;;;;;3.68;100.00;100697.06;4815062;29;24184;-72
2021/12/05 16:12:08;;;;;;;50.28;27.33;;;;;;;3.75;100.00;100706.03;4811585;29;20048;-71
2021/12/05 16:14:36;;;;;;;48.85;26.98;;;;;;;3.68;100.00;100713.03;4808343;29;20055;-73
2021/12/05 16:17:19;;;;;;;50.28;27.92;;;;;;;3.68;100.00;100711.19;4813566;29;20036;-73
2021/12/05 16:20:07;;;;;;;46.83;26.48;;;;;;;3.70;100.00;100716.38;4804038;29;23864;-74
2021/12/05 16:22:53;;;;;;;49.25;27.00;;;;;;;3.64;100.00;100725.03;4834316;29;20039;-72
2021/12/05 16:25:19;;;;;;;49.58;28.02;;;;;;;3.59;100.00;100723.72;4815371;29;20803;-71
2021/12/05 16:28:01;;;;;;;48.97;28.02;;;;;;;3.54;100.00;100723.38;4822622;29;20493;-71
2021/12/05 16:30:31;;;;;;;48.92;29.73;;;;;;;3.49;100.00;100733.72;4823358;29;20422;-73
2021/12/05 16:32:59;;;;;;;50.22;28.83;;;;;;;3.54;100.00;100739.38;4823725;29;20059;-71
2021/12/05 16:35:33;;;;;;;54.88;30.98;;;;;;;3.55;100.00;100742.88;4838023;29;20051;-70
2021/12/05 16:37:59;;;;;;;47.58;26.70;;;;;;;3.61;100.00;100752.00;4815642;28;24132;-72
2021/12/05 16:40:26;;;;;;;45.15;28.30;;;;;;;3.54;100.00;100750.03;4825771;29;20063;-72
2021/12/05 16:43:09;;;;;;;52.70;29.73;;;;;;;3.53;100.00;100751.03;4803331;28;20191;-72
2021/12/05 16:45:38;;;;;;;47.90;28.67;;;;;;;3.52;100.00;100760.03;4823798;29;20066;-72
2021/12/05 16:48:04;;;;;;;53.78;29.25;;;;;;;3.47;100.00;100756.19;4839300;28;20739;-70
2021/12/05 16:50:30;;;;;;;47.60;27.92;;;;;;;3.49;100.00;100773.69;4814640;29;20145;-71
2021/12/05 16:52:55;;;;;;;43.65;25.98;;;;;;;3.45;100.00;100769.69;4797025;29;21123;-72
2021/12/05 16:55:27;;;;;;;46.92;26.63;;;;;;;3.45;100.00;100785.66;4838521;29;29427;-72
2021/12/05 16:58:15;;;;;;;44.08;27.73;;;;;;;3.41;100.00;100784.34;4793439;28;25126;-72